createdAt,value
2022-10-31T00:01:42.272Z,98634.34
2022-10-31T00:04:10.963Z,98640.19
2022-10-31T00:06:41.087Z,98632.53
2022-10-31T00:09:11.730Z,98641.72
2022-10-31T00:11:40.183Z,98644.34
2022-10-31T00:14:08.978Z,98635.72
2022-10-31T00:16:38.640Z,98644.72
2022-10-31T00:19:09.433Z,98654.72
2022-10-31T00:21:38.146Z,98649.13
2022-10-31T00:24:10.625Z,98645.06
2022-10-31T00:26:40.095Z,98651.13
2022-10-31T00:29:08.708Z,98644.25
2022-10-31T00:31:38.042Z,98650.75
2022-10-31T00:34:06.586Z,98639.63
2022-10-31T00:36:35.729Z,98631.78
2022-10-31T00:39:04.266Z,98637.00
2022-10-31T00:41:34.232Z,98636.38
2022-10-31T00:44:02.765Z,98643.25
2022-10-31T00:46:31.330Z,98636.56
2022-10-31T00:49:00.490Z,98638.53
2022-10-31T00:51:29.707Z,98640.34
2022-10-31T00:53:58.318Z,98639.72
2022-10-31T00:56:27.464Z,98630.84
2022-10-31T00:58:58.693Z,98627.88
2022-10-31T01:01:27.961Z,98633.94
2022-10-31T01:03:57.103Z,98626.31
2022-10-31T01:06:25.720Z,98624.34
2022-10-31T01:08:54.623Z,98616.69
2022-10-31T01:11:25.216Z,98613.41
2022-10-31T01:13:56.791Z,98610.97
2022-10-31T01:16:28.063Z,98621.63
2022-10-31T01:18:57.321Z,98622.78
2022-10-31T01:21:28.906Z,98614.94
2022-10-31T01:23:58.043Z,98615.25
2022-10-31T01:26:29.233Z,98626.31
2022-10-31T01:29:02.477Z,98619.47
2022-10-31T01:31:35.076Z,98623.41
2022-10-31T01:34:04.668Z,98625.03
2022-10-31T01:36:36.217Z,98629.94
2022-10-31T01:39:07.995Z,98624.69
2022-10-31T01:41:42.885Z,98625.88
2022-10-31T01:45:01.000Z,98622.28
2022-10-31T01:47:49.160Z,98619.47
2022-10-31T01:50:30.911Z,98611.16
2022-10-31T01:53:02.712Z,98610.31
2022-10-31T01:55:36.220Z,98611.81
2022-10-31T01:58:11.783Z,98615.91
2022-10-31T02:00:45.600Z,98605.53
2022-10-31T02:03:14.606Z,98602.09
2022-10-31T02:05:45.793Z,98604.72
2022-10-31T02:08:21.583Z,98599.94
2022-10-31T02:10:50.143Z,98597.94
2022-10-31T02:13:20.789Z,98600.41
2022-10-31T02:15:55.583Z,98607.09
2022-10-31T02:18:27.322Z,98603.47
2022-10-31T02:21:14.866Z,98605.28
2022-10-31T02:24:37.903Z,98607.91
2022-10-31T02:27:51.032Z,98602.25
2022-10-31T02:30:24.868Z,98602.25
2022-10-31T02:33:21.158Z,98599.00
2022-10-31T02:36:06.012Z,98601.63
2022-10-31T02:38:54.238Z,98597.03
2022-10-31T02:41:35.846Z,98596.41
2022-10-31T02:44:15.194Z,98599.63
2022-10-31T02:46:52.810Z,98605.41
2022-10-31T02:49:31.638Z,98603.78
2022-10-31T02:52:00.355Z,98598.72
2022-10-31T02:54:31.047Z,98594.13
2022-10-31T02:57:09.256Z,98596.09
2022-10-31T02:59:46.420Z,98594.81
2022-10-31T03:02:47.874Z,98601.69
2022-10-31T03:05:58.079Z,98599.56
2022-10-31T03:08:34.181Z,98601.41
2022-10-31T03:11:07.768Z,98598.44
2022-10-31T03:13:48.359Z,98589.41
2022-10-31T03:16:23.882Z,98592.19
2022-10-31T03:18:59.651Z,98595.97
2022-10-31T03:21:35.407Z,98590.75
2022-10-31T03:24:08.115Z,98587.78
2022-10-31T03:26:41.125Z,98585.97
2022-10-31T03:29:15.264Z,98585.72
2022-10-31T03:31:51.750Z,98591.91
2022-10-31T03:34:23.533Z,98587.50
2022-10-31T03:36:58.785Z,98588.31
2022-10-31T03:39:30.260Z,98583.88
2022-10-31T03:42:07.874Z,98585.56
2022-10-31T03:44:43.284Z,98582.16
2022-10-31T03:47:12.659Z,98586.91
2022-10-31T03:49:42.202Z,98586.09
2022-10-31T03:52:26.100Z,98576.94
2022-10-31T03:55:01.065Z,98577.91
2022-10-31T03:57:38.415Z,98573.66
2022-10-31T04:00:11.299Z,98581.69
2022-10-31T04:02:46.414Z,98581.69
2022-10-31T04:05:19.716Z,98582.50
2022-10-31T04:07:57.857Z,98583.28
2022-10-31T04:10:33.097Z,98584.47
2022-10-31T04:13:11.504Z,98589.34
2022-10-31T04:15:43.551Z,98587.38
2022-10-31T04:18:12.215Z,98584.59
2022-10-31T04:20:43.577Z,98589.47
2022-10-31T04:23:21.998Z,98585.41
2022-10-31T04:25:50.485Z,98585.75
2022-10-31T04:28:21.250Z,98588.00
2022-10-31T04:30:50.400Z,98594.22
2022-10-31T04:33:19.316Z,98585.41
2022-10-31T04:35:48.177Z,98591.97
2022-10-31T04:38:18.214Z,98582.81
2022-10-31T04:40:48.130Z,98585.13
2022-10-31T04:43:17.107Z,98585.75
2022-10-31T04:45:45.687Z,98588.19
2022-10-31T04:48:14.198Z,98581.84
2022-10-31T04:50:42.827Z,98587.44
2022-10-31T04:53:11.459Z,98582.19
2022-10-31T04:55:41.274Z,98582.81
2022-10-31T04:58:10.875Z,98577.59
2022-10-31T05:00:40.617Z,98573.41
2022-10-31T05:03:09.757Z,98583.88
2022-10-31T05:05:38.708Z,98579.16
2022-10-31T05:08:08.602Z,98577.72
2022-10-31T05:10:37.747Z,98562.38
2022-10-31T05:13:08.728Z,98556.31
2022-10-31T05:15:37.362Z,98555.03
2022-10-31T05:18:08.126Z,98556.38
2022-10-31T05:20:38.010Z,98556.22
2022-10-31T05:23:07.782Z,98555.28
2022-10-31T05:25:36.333Z,98556.09
2022-10-31T05:28:06.355Z,98550.88
2022-10-31T05:30:36.612Z,98552.03
2022-10-31T05:33:05.288Z,98552.34
2022-10-31T05:35:35.225Z,98557.41
2022-10-31T05:38:04.707Z,98565.78
2022-10-31T05:40:33.960Z,98558.91
2022-10-31T05:43:03.517Z,98556.94
2022-10-31T05:45:34.955Z,98559.63
2022-10-31T05:48:06.717Z,98554.53
2022-10-31T05:50:35.780Z,98555.53
2022-10-31T05:53:07.395Z,98551.13
2022-10-31T05:55:36.039Z,98548.69
2022-10-31T05:58:04.935Z,98552.44
2022-10-31T06:00:36.220Z,98553.13
2022-10-31T06:05:39.233Z,98545.16
2022-10-31T06:08:08.732Z,98536.50
2022-10-31T06:10:37.369Z,98534.56
2022-10-31T06:13:07.602Z,98540.13
2022-10-31T06:15:37.662Z,98536.56
2022-10-31T06:18:09.211Z,98537.06
2022-10-31T06:20:38.791Z,98534.59
2022-10-31T06:23:07.805Z,98524.81
2022-10-31T06:25:37.534Z,98538.84
2022-10-31T06:28:06.764Z,98539.19
2022-10-31T06:30:37.881Z,98539.53
2022-10-31T06:33:07.837Z,98542.78
2022-10-31T06:35:36.527Z,98543.44
2022-10-31T06:38:06.450Z,98544.88
2022-10-31T06:40:35.314Z,98539.47
2022-10-31T06:43:04.720Z,98540.47
2022-10-31T06:45:33.481Z,98546.03
2022-10-31T06:48:16.600Z,98545.03
2022-10-31T06:50:47.128Z,98550.94
2022-10-31T06:53:16.684Z,98552.88
2022-10-31T06:55:45.533Z,98556.50
2022-10-31T06:58:14.960Z,98553.53
2022-10-31T07:00:44.367Z,98560.22
2022-10-31T07:03:18.033Z,98557.59
2022-10-31T07:05:47.032Z,98562.81
2022-10-31T07:08:16.976Z,98560.22
2022-10-31T07:10:54.499Z,98563.78
2022-10-31T07:13:26.617Z,98565.09
2022-10-31T07:16:01.357Z,98564.13
2022-10-31T07:18:32.430Z,98571.81
2022-10-31T07:21:00.980Z,98579.47
2022-10-31T07:23:29.755Z,98573.75
2022-10-31T07:25:59.489Z,98574.84
2022-10-31T07:28:29.869Z,98570.09
2022-10-31T07:31:00.259Z,98577.44
2022-10-31T07:33:30.213Z,98579.56
2022-10-31T07:35:59.327Z,98570.72
2022-10-31T07:38:28.903Z,98578.06
2022-10-31T07:40:58.347Z,98576.59
2022-10-31T07:43:26.973Z,98579.00
2022-10-31T07:45:56.199Z,98571.47
2022-10-31T07:48:24.859Z,98573.75
2022-10-31T07:50:55.159Z,98574.56
2022-10-31T07:53:23.827Z,98574.41
2022-10-31T07:55:52.978Z,98570.63
2022-10-31T07:58:21.542Z,98574.38
2022-10-31T08:00:50.822Z,98576.66
2022-10-31T08:03:22.021Z,98571.88
2022-10-31T08:05:50.644Z,98567.94
2022-10-31T08:08:20.764Z,98572.47
2022-10-31T08:10:49.335Z,98566.91
2022-10-31T08:13:17.801Z,98563.31
2022-10-31T08:15:51.049Z,98569.84
2022-10-31T08:18:19.795Z,98565.88
2022-10-31T08:20:48.407Z,98567.34
2022-10-31T08:23:17.105Z,98570.41
2022-10-31T08:25:48.009Z,98570.88
2022-10-31T08:28:17.230Z,98562.50
2022-10-31T08:30:47.651Z,98563.78
2022-10-31T08:33:19.732Z,98549.38
2022-10-31T08:35:48.776Z,98549.00
2022-10-31T08:38:17.391Z,98548.66
2022-10-31T08:40:51.595Z,98552.38
2022-10-31T08:43:20.634Z,98550.84
2022-10-31T08:45:51.820Z,98548.53
2022-10-31T08:48:20.295Z,98547.00
2022-10-31T08:50:49.878Z,98544.69
2022-10-31T08:53:20.640Z,98548.56
2022-10-31T08:55:51.315Z,98540.53
2022-10-31T08:58:21.853Z,98547.03
2022-10-31T09:00:54.158Z,98549.75
2022-10-31T09:03:26.035Z,98544.81
2022-10-31T09:06:00.047Z,98535.41
2022-10-31T09:08:30.939Z,98534.06
2022-10-31T09:11:02.753Z,98531.69
2022-10-31T09:13:33.308Z,98532.81
2022-10-31T09:16:01.879Z,98523.59
2022-10-31T09:18:32.920Z,98523.03
2022-10-31T09:21:03.189Z,98512.84
2022-10-31T09:23:32.727Z,98509.69
2022-10-31T09:26:03.783Z,98510.13
2022-10-31T09:28:33.471Z,98513.03
2022-10-31T09:31:01.949Z,98515.28
2022-10-31T09:33:30.465Z,98515.56
2022-10-31T09:36:01.304Z,98510.56
2022-10-31T09:38:29.802Z,98511.84
2022-10-31T09:41:17.272Z,98497.38
2022-10-31T09:44:00.786Z,98501.69
2022-10-31T09:46:43.424Z,98494.06
2022-10-31T09:49:56.472Z,98501.00
2022-10-31T09:52:33.117Z,98496.03
2022-10-31T09:55:11.290Z,98498.28
2022-10-31T09:57:43.728Z,98489.66
2022-10-31T10:00:20.242Z,98489.94
2022-10-31T10:02:59.468Z,98491.16
2022-10-31T10:05:41.598Z,98487.81
2022-10-31T10:08:18.897Z,98482.78
2022-10-31T10:11:07.816Z,98487.28
2022-10-31T10:14:06.778Z,98487.53
2022-10-31T10:17:03.194Z,98486.16
2022-10-31T10:20:02.544Z,98488.22
2022-10-31T10:22:54.695Z,98499.59
2022-10-31T10:25:26.338Z,98496.38
2022-10-31T10:28:18.020Z,98503.47
2022-10-31T10:30:52.874Z,98494.22
2022-10-31T10:33:28.980Z,98494.47
2022-10-31T10:36:03.394Z,98492.09
2022-10-31T10:38:40.607Z,98484.84
2022-10-31T10:41:18.565Z,98489.50
2022-10-31T10:46:53.724Z,98486.38
2022-10-31T10:49:33.854Z,98476.94
2022-10-31T10:52:27.425Z,98464.00
2022-10-31T10:55:16.358Z,98459.00
2022-10-31T10:57:58.470Z,98458.41
2022-10-31T11:00:32.077Z,98451.56
2022-10-31T11:03:02.729Z,98446.34
2022-10-31T11:05:40.129Z,98431.00
2022-10-31T11:08:09.725Z,98427.97
2022-10-31T11:10:38.920Z,98434.47
2022-10-31T11:13:25.149Z,98444.00
2022-10-31T11:16:00.809Z,98451.28
2022-10-31T11:18:34.978Z,98437.56
2022-10-31T11:21:06.530Z,98425.44
2022-10-31T11:23:35.887Z,98422.03
2022-10-31T11:26:08.449Z,98416.97
2022-10-31T11:28:37.161Z,98425.06
2022-10-31T11:31:14.566Z,98424.28
2022-10-31T11:33:55.418Z,98415.78
2022-10-31T11:36:29.108Z,98410.53
2022-10-31T11:39:00.764Z,98414.38
2022-10-31T11:41:33.207Z,98410.34
2022-10-31T11:44:06.917Z,98406.91
2022-10-31T11:46:40.402Z,98401.88
2022-10-31T11:49:19.114Z,98394.19
2022-10-31T11:51:54.061Z,98386.47
2022-10-31T11:54:28.243Z,98370.91
2022-10-31T11:56:57.382Z,98372.94
2022-10-31T11:59:31.184Z,98373.34
2022-10-31T12:02:03.463Z,98372.50
2022-10-31T12:04:43.937Z,98354.25
2022-10-31T12:07:14.137Z,98353.47
2022-10-31T12:09:43.797Z,98355.44
2022-10-31T12:12:46.951Z,98348.56
2022-10-31T12:15:32.314Z,98343.28
2022-10-31T12:18:38.198Z,98338.19
2022-10-31T12:21:31.699Z,98320.75
2022-10-31T12:24:25.277Z,98306.16
2022-10-31T12:27:11.607Z,98301.28
2022-10-31T12:30:03.534Z,98309.56
2022-10-31T12:32:46.168Z,98331.84
2022-10-31T12:35:43.439Z,98332.03
2022-10-31T12:38:55.926Z,98328.16
2022-10-31T12:41:46.992Z,98310.09
2022-10-31T12:44:47.203Z,98304.41
2022-10-31T12:47:43.213Z,98296.09
2022-10-31T12:50:30.167Z,98298.50
2022-10-31T12:56:08.793Z,98308.81
2022-10-31T12:58:53.857Z,98289.97
2022-10-31T13:01:29.437Z,98294.41
2022-10-31T13:04:05.486Z,98289.53
2022-10-31T13:06:44.539Z,98289.91
2022-10-31T13:09:20.428Z,98284.44
2022-10-31T13:11:59.329Z,98277.13
2022-10-31T13:14:36.277Z,98263.50
2022-10-31T13:17:06.162Z,98265.94
2022-10-31T13:19:41.741Z,98266.53
2022-10-31T13:22:18.400Z,98259.22
2022-10-31T13:24:59.847Z,98257.38
2022-10-31T13:27:38.557Z,98244.00
2022-10-31T13:30:16.931Z,98248.81
2022-10-31T13:32:51.077Z,98247.00
2022-10-31T13:35:31.750Z,98243.34
2022-10-31T13:38:19.611Z,98235.44
2022-10-31T13:40:57.699Z,98228.13
2022-10-31T13:43:39.535Z,98215.50
2022-10-31T13:46:25.746Z,98207.41
2022-10-31T13:48:54.471Z,98207.78
2022-10-31T13:51:30.381Z,98206.53
2022-10-31T13:54:08.497Z,98211.34
2022-10-31T13:56:38.216Z,98198.78
2022-10-31T13:59:23.230Z,98204.19
2022-10-31T14:01:58.447Z,98200.91
2022-10-31T14:04:34.940Z,98207.13
2022-10-31T14:07:10.748Z,98201.00
2022-10-31T14:09:43.951Z,98199.56
2022-10-31T14:12:31.529Z,98201.75
2022-10-31T14:15:07.754Z,98197.06
2022-10-31T14:17:49.243Z,98220.38
2022-10-31T14:20:41.012Z,98196.84
2022-10-31T14:23:48.454Z,98182.41
2022-10-31T14:26:40.990Z,98167.59
2022-10-31T14:29:30.039Z,98179.75
2022-10-31T14:32:11.982Z,98187.88
2022-10-31T14:34:44.079Z,98135.91
2022-10-31T14:38:01.025Z,98145.66
2022-10-31T14:40:44.552Z,98131.69
2022-10-31T14:43:45.499Z,98132.47
2022-10-31T14:46:28.202Z,98159.66
2022-10-31T14:49:25.269Z,98132.06
2022-10-31T14:51:54.932Z,98141.34
2022-10-31T14:54:35.041Z,98121.63
2022-10-31T14:57:09.829Z,98108.41
2022-10-31T14:59:50.287Z,98108.22
2022-10-31T15:02:26.009Z,98087.09
2022-10-31T15:04:59.956Z,98079.75
2022-10-31T15:07:33.616Z,98071.25
2022-10-31T15:10:08.874Z,98078.56
2022-10-31T15:12:39.120Z,98090.75
2022-10-31T15:15:16.188Z,98089.94
2022-10-31T15:17:50.229Z,98090.31
2022-10-31T15:20:25.234Z,98090.31
2022-10-31T15:22:55.643Z,98088.13
2022-10-31T15:25:27.148Z,98080.66
2022-10-31T15:27:55.762Z,98069.84
2022-10-31T15:30:27.874Z,98061.94
2022-10-31T15:32:59.191Z,98059.75
2022-10-31T15:35:32.030Z,98064.44
2022-10-31T15:38:02.885Z,98083.59
2022-10-31T15:40:31.861Z,98097.44
2022-10-31T15:43:04.898Z,98089.16
2022-10-31T15:45:34.392Z,98079.03
2022-10-31T15:48:17.472Z,98082.13
2022-10-31T15:50:53.203Z,98090.13
2022-10-31T15:53:27.593Z,98103.81
2022-10-31T15:56:01.368Z,98114.66
2022-10-31T15:58:31.322Z,98108.06
2022-10-31T16:01:02.489Z,98100.34
2022-10-31T16:03:33.152Z,98112.59
2022-10-31T16:06:06.430Z,98094.59
2022-10-31T16:08:37.157Z,98089.94
2022-10-31T16:11:26.401Z,98095.28
2022-10-31T16:14:00.872Z,98095.94
2022-10-31T16:16:35.654Z,98103.88
2022-10-31T16:19:16.566Z,98089.31
2022-10-31T16:21:49.642Z,98112.09
2022-10-31T16:24:27.037Z,98120.00
2022-10-31T16:27:06.089Z,98112.16
2022-10-31T16:29:44.604Z,98104.09
2022-10-31T16:32:38.154Z,98129.25
2022-10-31T16:35:27.673Z,98139.88
2022-10-31T16:37:57.831Z,98119.63
2022-10-31T16:40:27.083Z,98099.38
2022-10-31T16:42:56.253Z,98100.03
2022-10-31T16:45:27.392Z,98095.41
2022-10-31T16:47:56.532Z,98117.94
2022-10-31T16:50:28.500Z,98129.50
2022-10-31T16:53:13.302Z,98114.94
2022-10-31T16:55:49.174Z,98108.09
2022-10-31T16:58:25.222Z,98152.06
2022-10-31T17:00:54.911Z,98132.84
2022-10-31T17:03:24.816Z,98132.84
2022-10-31T17:05:53.440Z,98132.69
2022-10-31T17:08:24.781Z,98132.50
2022-10-31T17:10:56.756Z,98142.00
2022-10-31T17:13:29.657Z,98122.97
2022-10-31T17:16:01.753Z,98125.41
2022-10-31T17:18:31.004Z,98129.47
2022-10-31T17:21:03.851Z,98126.47
2022-10-31T17:23:35.104Z,98123.06
2022-10-31T17:26:03.581Z,98126.50
2022-10-31T17:28:32.192Z,98131.56
2022-10-31T17:31:01.865Z,98134.22
2022-10-31T17:33:30.366Z,98139.06
2022-10-31T17:35:58.881Z,98135.84
2022-10-31T17:38:27.509Z,98140.31
2022-10-31T17:40:57.347Z,98133.44
2022-10-31T17:43:27.590Z,98125.38
2022-10-31T17:45:56.055Z,98125.97
2022-10-31T17:48:24.499Z,98136.50
2022-10-31T17:50:53.100Z,98120.50
2022-10-31T17:53:21.657Z,98127.19
2022-10-31T17:55:50.126Z,98128.22
2022-10-31T17:58:20.178Z,98126.22
2022-10-31T18:00:50.501Z,98131.06
2022-10-31T18:03:19.868Z,98124.41
2022-10-31T18:05:55.542Z,98119.34
2022-10-31T18:08:28.407Z,98124.38
2022-10-31T18:10:59.901Z,98125.41
2022-10-31T18:13:30.466Z,98121.75
2022-10-31T18:15:59.166Z,98127.41
2022-10-31T18:18:27.589Z,98125.41
2022-10-31T18:20:59.316Z,98120.53
2022-10-31T18:23:27.799Z,98123.16
2022-10-31T18:25:56.521Z,98116.72
2022-10-31T18:28:25.166Z,98128.22
2022-10-31T18:30:55.024Z,98123.75
2022-10-31T18:33:23.470Z,98126.38
2022-10-31T18:35:51.919Z,98124.34
2022-10-31T18:38:20.584Z,98120.50
2022-10-31T18:40:49.280Z,98117.66
2022-10-31T18:43:17.996Z,98118.06
2022-10-31T18:45:48.122Z,98108.78
2022-10-31T18:48:20.385Z,98108.59
2022-10-31T18:50:49.495Z,98100.91
2022-10-31T18:53:18.084Z,98111.16
2022-10-31T18:55:49.945Z,98110.56
2022-10-31T18:58:18.952Z,98103.50
2022-10-31T19:00:48.635Z,98099.47
2022-10-31T19:03:24.843Z,98099.84
2022-10-31T19:05:56.773Z,98096.63
2022-10-31T19:08:25.531Z,98091.97
2022-10-31T19:10:54.695Z,98092.59
2022-10-31T19:13:23.641Z,98088.50
2022-10-31T19:15:52.147Z,98084.28
2022-10-31T19:18:22.459Z,98076.63
2022-10-31T19:20:52.269Z,98070.78
2022-10-31T19:23:20.875Z,98077.19
2022-10-31T19:25:49.559Z,98062.50
2022-10-31T19:28:18.637Z,98069.94
2022-10-31T19:30:55.517Z,98060.44
2022-10-31T19:33:34.806Z,98067.50
2022-10-31T19:36:09.741Z,98059.03
2022-10-31T19:38:40.795Z,98061.44
2022-10-31T19:41:12.486Z,98050.53
2022-10-31T19:43:42.056Z,98059.38
2022-10-31T19:46:22.167Z,98062.00
2022-10-31T19:48:57.893Z,98059.38
2022-10-31T19:51:26.600Z,98060.41
2022-10-31T19:53:56.671Z,98056.16
2022-10-31T19:56:27.062Z,98054.75
2022-10-31T19:58:55.600Z,98043.66
2022-10-31T20:01:26.470Z,98050.09
2022-10-31T20:03:55.012Z,98043.22
2022-10-31T20:06:27.895Z,98045.66
2022-10-31T20:08:57.381Z,98045.63
2022-10-31T20:11:27.821Z,98047.19
2022-10-31T20:13:57.946Z,98043.59
2022-10-31T20:16:27.954Z,98040.78
2022-10-31T20:18:57.241Z,98044.81
2022-10-31T20:21:30.117Z,98049.44
2022-10-31T20:24:00.248Z,98046.22
2022-10-31T20:26:30.030Z,98046.03
2022-10-31T20:28:59.721Z,98038.34
2022-10-31T20:31:32.769Z,98040.78
2022-10-31T20:34:01.937Z,98041.97
2022-10-31T20:36:32.114Z,98043.16
2022-10-31T20:39:01.540Z,98034.88
2022-10-31T20:41:30.801Z,98041.94
2022-10-31T20:44:00.078Z,98034.72
2022-10-31T20:46:29.385Z,98033.88
2022-10-31T20:48:58.013Z,98033.47
2022-10-31T20:51:29.326Z,98031.84
2022-10-31T20:54:01.243Z,98035.84
2022-10-31T20:56:30.871Z,98037.88
2022-10-31T20:58:59.720Z,98026.75
2022-10-31T21:01:31.957Z,98035.84
2022-10-31T21:04:01.008Z,98032.78
2022-10-31T21:06:31.117Z,98032.59
2022-10-31T21:09:01.399Z,98030.16
2022-10-31T21:11:30.577Z,98020.91
2022-10-31T21:14:00.641Z,98021.50
2022-10-31T21:16:32.499Z,98019.50
2022-10-31T21:19:03.477Z,98015.25
2022-10-31T21:21:35.573Z,98017.28
2022-10-31T21:24:09.735Z,98026.13
2022-10-31T21:26:42.581Z,98026.13
2022-10-31T21:29:13.630Z,98030.38
2022-10-31T21:31:43.352Z,98031.16
2022-10-31T21:34:12.886Z,98017.28
2022-10-31T21:36:41.456Z,98025.75
2022-10-31T21:39:12.417Z,98021.31
2022-10-31T21:41:41.046Z,98023.13
2022-10-31T21:44:09.599Z,98018.69
2022-10-31T21:46:38.839Z,98018.69
2022-10-31T21:49:07.561Z,98020.50
2022-10-31T21:51:37.659Z,98007.22
2022-10-31T21:54:24.321Z,98011.66
2022-10-31T21:56:55.020Z,98004.38
2022-10-31T21:59:24.095Z,98002.72
2022-10-31T22:01:53.315Z,98003.91
2022-10-31T22:04:22.060Z,98002.28
2022-10-31T22:06:51.155Z,97995.06
2022-10-31T22:09:20.937Z,97994.44
2022-10-31T22:11:50.105Z,97997.69
2022-10-31T22:14:20.474Z,97994.69
2022-10-31T22:16:49.439Z,97996.31
2022-10-31T22:19:18.421Z,97989.47
2022-10-31T22:21:49.303Z,97987.44
2022-10-31T22:24:19.305Z,97990.88
2022-10-31T22:26:48.345Z,97994.31
2022-10-31T22:29:21.529Z,97992.28
2022-10-31T22:31:57.257Z,97995.94
2022-10-31T22:34:29.741Z,97994.31
2022-10-31T22:36:58.333Z,97995.13
2022-10-31T22:39:26.868Z,97995.13
2022-10-31T22:41:55.361Z,97995.94
2022-10-31T22:44:25.243Z,97994.91
2022-10-31T22:46:53.689Z,97992.28
2022-10-31T22:49:22.151Z,98000.53
2022-10-31T22:51:52.377Z,97998.94
2022-10-31T22:54:21.060Z,98002.72
2022-10-31T22:56:49.494Z,97993.06
2022-10-31T22:59:18.789Z,97992.09
2022-10-31T23:01:48.724Z,97987.84
2022-10-31T23:04:18.049Z,97992.44
2022-10-31T23:06:49.164Z,97990.22
2022-10-31T23:09:19.002Z,97980.56
2022-10-31T23:11:47.785Z,97978.72
2022-10-31T23:14:21.036Z,97976.09
2022-10-31T23:16:54.438Z,97979.75
2022-10-31T23:19:25.586Z,97977.13
2022-10-31T23:21:57.603Z,97983.19
2022-10-31T23:24:34.394Z,97974.50
2022-10-31T23:27:08.797Z,97981.72
2022-10-31T23:29:47.924Z,97981.13
2022-10-31T23:32:21.730Z,97986.97
2022-10-31T23:34:53.149Z,97989.38
2022-10-31T23:37:24.538Z,97981.53
2022-10-31T23:39:53.314Z,97976.69
2022-10-31T23:42:23.130Z,97975.66
2022-10-31T23:44:52.664Z,97986.13
2022-10-31T23:47:23.906Z,97977.25
2022-10-31T23:49:52.856Z,97966.78
2022-10-31T23:52:21.600Z,97978.06
2022-10-31T23:54:50.178Z,97975.25
2022-10-31T23:57:19.342Z,97972.19
2022-10-31T23:59:48.553Z,97965.97
